Terminal Aerodrome Forecast
Issued by NWS

Current Version | Previous Version | Text Only | Print | Product List | Glossary On
Versions: 1 2 3 4 5 6 7 8 9 10 11 12 13 14 15 16 17 18 19 20 21
000
FTUS43 KMQT 102321
TAFCMX
TAF
KCMX 102321Z 1100/1124 34007KT P6SM VCSH BKN025
     FM110300 00000KT P6SM VCSH BKN030
     FM110700 20005KT P6SM VCSH BKN035
     FM110900 19006KT P6SM OVC060
     FM111200 18006KT 3SM -SHSN OVC030
     FM111400 19005KT 1 1/2SM -SHSN OVC020
     FM112000 30012G21KT 1SM -SHSN BKN015
     FM112100 32016G27KT 3/4SM -SHSN BLSN BKN015=

USA.gov is the U.S. government's official web portal to all federal, state and local government web resources and services.